createdAt,value
2017-09-13T00:01:47.355Z,89.57
2017-09-13T00:04:22.150Z,89.25
2017-09-13T00:06:57.149Z,88.93
2017-09-13T00:09:31.868Z,88.95
2017-09-13T00:12:06.676Z,89.34
2017-09-13T00:14:41.750Z,89.18
2017-09-13T00:17:16.608Z,89.02
2017-09-13T00:19:51.203Z,89.32
2017-09-13T00:22:25.963Z,89.13
2017-09-13T00:25:00.829Z,89.35
2017-09-13T00:27:35.619Z,89.22
2017-09-13T00:30:10.619Z,88.91
2017-09-13T00:32:45.365Z,88.83
2017-09-13T00:35:19.955Z,89.06
2017-09-13T00:37:54.628Z,89.23
2017-09-13T00:40:29.005Z,89.20
2017-09-13T00:43:04.200Z,88.82
2017-09-13T00:45:38.915Z,88.73
2017-09-13T00:48:13.352Z,88.79
2017-09-13T00:50:48.104Z,89.02
2017-09-13T00:53:22.838Z,88.92
2017-09-13T00:55:57.629Z,88.82
2017-09-13T00:58:32.441Z,88.68
2017-09-13T01:01:07.681Z,88.61
2017-09-13T01:03:42.539Z,88.58
2017-09-13T01:06:17.102Z,88.43
2017-09-13T01:08:52.091Z,88.43
2017-09-13T01:11:26.639Z,88.10
2017-09-13T01:14:01.328Z,88.11
2017-09-13T01:16:36.155Z,88.09
2017-09-13T01:19:10.812Z,88.08
2017-09-13T01:21:46.068Z,87.64
2017-09-13T01:24:20.867Z,87.35
2017-09-13T01:26:55.495Z,87.16
2017-09-13T01:29:30.483Z,87.31
2017-09-13T01:32:05.324Z,87.09
2017-09-13T01:34:39.941Z,86.89
2017-09-13T01:37:14.851Z,87.07
2017-09-13T01:39:49.669Z,87.25
2017-09-13T01:42:25.019Z,86.72
2017-09-13T01:45:00.062Z,87.32
2017-09-13T01:47:34.573Z,87.17
2017-09-13T01:50:09.416Z,87.02
2017-09-13T01:52:44.827Z,87.46
2017-09-13T01:55:19.467Z,86.53
2017-09-13T01:57:54.170Z,87.04
2017-09-13T02:00:28.947Z,86.71
2017-09-13T02:03:03.795Z,85.83
2017-09-13T02:05:38.815Z,85.79
2017-09-13T02:08:13.378Z,85.74
2017-09-13T02:10:48.299Z,84.88
2017-09-13T02:13:23.131Z,85.21
2017-09-13T02:15:57.927Z,85.04
2017-09-13T02:18:32.659Z,84.80
2017-09-13T02:21:07.318Z,84.78
2017-09-13T02:23:42.059Z,84.84
2017-09-13T02:26:16.747Z,84.62
2017-09-13T02:28:51.473Z,84.79
2017-09-13T02:31:26.275Z,85.49
2017-09-13T02:34:01.141Z,84.83
2017-09-13T02:36:36.054Z,85.03
2017-09-13T02:39:10.680Z,85.11
2017-09-13T02:41:45.195Z,85.51
2017-09-13T02:44:19.884Z,85.77
2017-09-13T02:46:54.738Z,86.13
2017-09-13T02:49:29.659Z,86.12
2017-09-13T02:52:04.352Z,86.67
2017-09-13T02:54:39.167Z,87.44
2017-09-13T02:57:13.776Z,87.59
2017-09-13T02:59:48.192Z,89.05
2017-09-13T03:02:22.887Z,89.36
2017-09-13T03:04:57.807Z,89.64
2017-09-13T03:07:32.452Z,90.85
2017-09-13T03:10:07.416Z,90.94
2017-09-13T03:12:42.352Z,91.22
2017-09-13T03:15:17.094Z,91.15
2017-09-13T03:17:51.824Z,91.31
2017-09-13T03:20:26.769Z,91.36
2017-09-13T03:23:01.660Z,91.95
2017-09-13T03:25:36.283Z,92.09
2017-09-13T03:28:11.176Z,92.47
2017-09-13T03:30:47.144Z,92.51
2017-09-13T03:33:21.963Z,92.86
2017-09-13T03:35:56.788Z,92.81
2017-09-13T03:38:31.500Z,92.74
2017-09-13T03:41:06.209Z,93.03
2017-09-13T03:43:41.044Z,93.25
2017-09-13T03:46:16.036Z,93.47
2017-09-13T03:48:51.025Z,93.43
2017-09-13T03:51:25.787Z,93.47
2017-09-13T03:54:00.379Z,93.52
2017-09-13T03:56:34.815Z,94.08
2017-09-13T03:59:09.608Z,94.08
2017-09-13T04:01:44.545Z,93.93
2017-09-13T04:04:19.315Z,94.64
2017-09-13T04:06:53.996Z,94.65
2017-09-13T04:09:28.599Z,94.67
2017-09-13T04:12:03.276Z,94.27
2017-09-13T04:14:38.007Z,94.56
2017-09-13T04:17:12.545Z,94.49
2017-09-13T04:19:47.488Z,95.12
2017-09-13T04:22:22.880Z,95.15
2017-09-13T04:24:58.242Z,94.86
2017-09-13T04:27:33.080Z,95.56
2017-09-13T04:30:07.848Z,95.70
2017-09-13T04:32:42.757Z,96.01
2017-09-13T04:35:17.575Z,95.76
2017-09-13T04:37:52.318Z,96.20
2017-09-13T04:40:27.135Z,96.38
2017-09-13T04:43:02.259Z,96.35
2017-09-13T04:45:36.839Z,96.91
2017-09-13T04:48:11.676Z,96.62
2017-09-13T04:50:46.195Z,96.75
2017-09-13T04:53:21.168Z,96.68
2017-09-13T04:55:55.887Z,96.96
2017-09-13T04:58:30.432Z,96.26
2017-09-13T05:01:05.244Z,97.06
2017-09-13T05:03:39.859Z,97.35
2017-09-13T05:06:14.442Z,96.78
2017-09-13T05:08:49.236Z,96.89
2017-09-13T05:11:24.015Z,97.33
2017-09-13T05:13:58.735Z,97.38
2017-09-13T05:16:34.275Z,97.42
2017-09-13T05:19:08.991Z,97.12
2017-09-13T05:21:43.830Z,96.60
2017-09-13T05:24:18.535Z,96.81
2017-09-13T05:26:53.129Z,96.80
2017-09-13T05:29:27.820Z,97.15
2017-09-13T05:32:02.735Z,97.21
2017-09-13T05:34:37.558Z,97.61
2017-09-13T05:37:12.156Z,97.44
2017-09-13T05:39:46.850Z,96.84
2017-09-13T05:42:21.842Z,97.01
2017-09-13T05:44:56.446Z,97.71
2017-09-13T05:47:31.489Z,97.69
2017-09-13T05:50:05.788Z,97.69
2017-09-13T05:52:40.884Z,97.54
2017-09-13T05:55:15.619Z,97.75
2017-09-13T05:57:50.571Z,97.63
2017-09-13T06:00:24.830Z,97.47
2017-09-13T06:02:59.894Z,98.14
2017-09-13T06:05:34.595Z,97.94
2017-09-13T06:08:09.443Z,97.78
2017-09-13T06:10:44.139Z,97.74
2017-09-13T06:13:18.831Z,98.00
2017-09-13T06:15:53.520Z,97.92
2017-09-13T06:18:28.237Z,97.69
2017-09-13T06:21:02.827Z,97.62
2017-09-13T06:23:37.858Z,97.45
2017-09-13T06:26:12.607Z,97.48
2017-09-13T06:28:47.739Z,97.14
2017-09-13T06:31:22.251Z,97.55
2017-09-13T06:33:56.663Z,97.46
2017-09-13T06:36:31.287Z,97.14
2017-09-13T06:39:05.867Z,97.39
2017-09-13T06:41:40.850Z,97.53
2017-09-13T06:44:15.829Z,97.01
2017-09-13T06:46:50.607Z,96.84
2017-09-13T06:49:25.347Z,97.07
2017-09-13T06:52:01.140Z,97.31
2017-09-13T06:54:36.103Z,97.24
2017-09-13T06:57:10.842Z,96.83
2017-09-13T07:02:55.414Z,96.79
2017-09-13T07:05:30.471Z,96.50
2017-09-13T07:08:05.479Z,96.44
2017-09-13T07:10:40.424Z,95.84
2017-09-13T07:13:15.443Z,95.72
2017-09-13T07:15:50.263Z,95.08
2017-09-13T07:18:25.091Z,94.60
2017-09-13T07:20:59.923Z,94.27
2017-09-13T07:23:34.790Z,94.35
2017-09-13T07:26:09.435Z,94.65
2017-09-13T07:28:44.020Z,95.15
2017-09-13T07:31:18.855Z,95.07
2017-09-13T07:33:53.463Z,94.30
2017-09-13T07:36:28.617Z,94.09
2017-09-13T07:39:03.434Z,94.86
2017-09-13T07:41:38.501Z,94.60
2017-09-13T07:44:13.193Z,94.23
2017-09-13T07:46:55.406Z,94.02
2017-09-13T07:49:30.024Z,92.16
2017-09-13T07:52:04.944Z,90.40
2017-09-13T07:54:39.655Z,90.50
2017-09-13T07:57:14.483Z,89.11
2017-09-13T07:59:49.095Z,88.62
2017-09-13T08:02:24.004Z,88.04
2017-09-13T08:04:58.780Z,87.20
2017-09-13T08:07:33.731Z,87.73
2017-09-13T08:10:08.443Z,87.96
2017-09-13T08:12:43.307Z,88.19
2017-09-13T08:15:18.048Z,87.50
2017-09-13T08:17:52.572Z,86.45
2017-09-13T08:20:27.533Z,86.83
2017-09-13T08:23:02.355Z,86.84
2017-09-13T08:25:37.241Z,86.60
2017-09-13T08:28:11.923Z,87.33
2017-09-13T08:30:46.757Z,87.93
2017-09-13T08:33:21.865Z,88.72
2017-09-13T08:35:56.587Z,88.72
2017-09-13T08:38:31.470Z,89.36
2017-09-13T08:41:06.347Z,89.07
2017-09-13T08:43:41.481Z,89.35
2017-09-13T08:46:16.202Z,88.82
2017-09-13T08:48:50.880Z,89.42
2017-09-13T08:54:06.300Z,88.58
2017-09-13T08:56:40.975Z,89.08
2017-09-13T08:59:16.180Z,89.51
2017-09-13T09:01:51.162Z,89.01
2017-09-13T09:04:26.158Z,87.90
2017-09-13T09:07:01.105Z,88.84
2017-09-13T09:09:35.812Z,89.20
2017-09-13T09:12:10.340Z,90.26
2017-09-13T09:14:45.153Z,90.09
2017-09-13T09:17:19.967Z,89.68
2017-09-13T09:19:54.599Z,89.53
2017-09-13T09:22:29.593Z,87.50
2017-09-13T09:25:04.099Z,84.66
2017-09-13T09:27:38.933Z,84.25
2017-09-13T09:30:13.831Z,83.17
2017-09-13T09:32:48.531Z,83.27
2017-09-13T09:35:23.173Z,78.97
2017-09-13T09:37:57.947Z,78.02
2017-09-13T09:40:32.656Z,78.58
2017-09-13T09:43:07.476Z,75.77
2017-09-13T09:45:42.224Z,75.62
2017-09-13T09:48:16.961Z,76.75
2017-09-13T09:50:54.724Z,73.93
2017-09-13T09:53:29.508Z,72.68
2017-09-13T09:56:05.069Z,70.38
2017-09-13T09:58:39.870Z,69.72
2017-09-13T10:01:15.439Z,67.46
2017-09-13T10:03:50.971Z,66.76
2017-09-13T10:06:25.703Z,67.52
2017-09-13T10:09:00.437Z,67.33
2017-09-13T10:11:35.019Z,68.01
2017-09-13T10:14:10.066Z,68.61
2017-09-13T10:16:45.594Z,68.83
2017-09-13T10:19:20.796Z,65.57
2017-09-13T10:21:55.961Z,65.47
2017-09-13T10:24:30.501Z,65.60
2017-09-13T10:27:05.277Z,64.69
2017-09-13T10:29:40.008Z,64.89
2017-09-13T10:32:14.627Z,61.99
2017-09-13T10:34:49.427Z,63.87
2017-09-13T10:37:24.392Z,60.89
2017-09-13T10:39:59.029Z,62.13
2017-09-13T10:42:33.842Z,61.51
2017-09-13T10:45:08.556Z,61.91
2017-09-13T10:47:43.434Z,62.39
2017-09-13T10:50:18.285Z,62.50
2017-09-13T10:52:52.913Z,61.89
2017-09-13T10:55:27.504Z,61.16
2017-09-13T10:58:02.316Z,61.62
2017-09-13T11:00:37.264Z,60.60
2017-09-13T11:03:12.545Z,59.81
2017-09-13T11:05:47.792Z,58.51
2017-09-13T11:08:23.166Z,58.99
2017-09-13T11:34:54.360Z,69.33
2017-09-13T11:37:29.153Z,69.93
2017-09-13T11:40:03.941Z,68.73
2017-09-13T11:42:38.773Z,68.81
2017-09-13T11:45:13.700Z,66.27
2017-09-13T11:47:48.504Z,65.35
2017-09-13T11:50:23.101Z,62.11
2017-09-13T11:52:57.692Z,61.99
2017-09-13T11:55:32.608Z,61.79
2017-09-13T11:58:08.276Z,61.35
2017-09-13T12:00:42.968Z,61.02
2017-09-13T12:03:17.751Z,58.15
2017-09-13T12:05:52.349Z,59.01
2017-09-13T12:08:27.136Z,59.74
2017-09-13T12:11:01.911Z,59.22
2017-09-13T12:13:36.568Z,59.04
2017-09-13T12:16:10.981Z,59.23
2017-09-13T12:18:45.701Z,57.37
2017-09-13T12:21:20.189Z,57.93
2017-09-13T12:23:54.960Z,57.10
2017-09-13T12:26:29.669Z,56.91
2017-09-13T12:29:04.504Z,57.67
2017-09-13T12:31:39.552Z,57.65
2017-09-13T12:34:14.877Z,57.46
2017-09-13T12:36:50.036Z,57.94
2017-09-13T12:39:25.652Z,56.61
2017-09-13T12:42:00.497Z,57.59
2017-09-13T12:44:35.357Z,57.85
2017-09-13T12:47:10.093Z,57.94
2017-09-13T12:49:44.692Z,60.86
2017-09-13T12:52:19.404Z,64.27
2017-09-13T12:54:54.125Z,65.84
2017-09-13T12:57:28.832Z,68.64
2017-09-13T13:00:03.552Z,69.06
2017-09-13T13:02:38.345Z,68.12
2017-09-13T13:05:13.169Z,68.67
2017-09-13T13:07:48.081Z,67.70
2017-09-13T13:10:23.137Z,66.13
2017-09-13T13:12:57.985Z,64.54
2017-09-13T13:15:32.579Z,63.34
2017-09-13T13:18:07.264Z,58.25
2017-09-13T13:20:42.016Z,57.18
2017-09-13T13:23:17.789Z,56.95
2017-09-13T13:25:52.644Z,56.00
2017-09-13T13:28:27.381Z,56.19
2017-09-13T13:31:02.082Z,56.53
2017-09-13T13:33:37.810Z,57.14
2017-09-13T13:36:12.425Z,55.48
2017-09-13T13:38:47.225Z,55.82
2017-09-13T13:41:21.744Z,55.55
2017-09-13T13:43:56.293Z,56.54
2017-09-13T13:46:30.945Z,55.21
2017-09-13T13:49:05.648Z,54.83
2017-09-13T13:51:40.317Z,54.61
2017-09-13T13:54:14.817Z,55.05
2017-09-13T13:56:49.606Z,55.76
2017-09-13T13:59:24.096Z,53.28
2017-09-13T14:01:58.880Z,54.50
2017-09-13T14:04:33.585Z,54.42
2017-09-13T14:07:08.249Z,55.86
2017-09-13T14:09:42.863Z,55.32
2017-09-13T14:12:17.401Z,56.00
2017-09-13T14:14:51.828Z,55.80
2017-09-13T14:17:26.361Z,55.10
2017-09-13T14:20:01.049Z,53.23
2017-09-13T14:22:36.677Z,53.63
2017-09-13T14:25:11.172Z,52.82
2017-09-13T14:27:45.876Z,53.16
2017-09-13T14:30:20.487Z,53.39
2017-09-13T14:32:55.464Z,54.24
2017-09-13T14:35:30.361Z,54.55
2017-09-13T14:38:05.088Z,53.27
2017-09-13T14:40:39.752Z,52.61
2017-09-13T14:43:14.767Z,52.06
2017-09-13T14:45:49.680Z,53.30
2017-09-13T14:48:24.556Z,52.74
2017-09-13T14:50:58.981Z,54.02
2017-09-13T14:53:33.797Z,53.68
2017-09-13T14:56:09.514Z,53.44
2017-09-13T14:58:44.265Z,52.89
2017-09-13T15:01:18.874Z,52.81
2017-09-13T15:03:53.593Z,52.26
2017-09-13T15:06:28.280Z,52.44
2017-09-13T15:09:02.888Z,52.03
2017-09-13T15:11:38.012Z,51.94
2017-09-13T15:14:12.730Z,51.10
2017-09-13T15:16:47.230Z,51.91
2017-09-13T15:19:22.140Z,53.21
2017-09-13T15:21:56.921Z,52.57
2017-09-13T15:24:32.257Z,52.01
2017-09-13T15:27:07.108Z,52.39
2017-09-13T15:29:42.030Z,52.06
2017-09-13T15:32:16.453Z,51.79
2017-09-13T15:34:51.389Z,51.85
2017-09-13T15:37:26.396Z,52.26
2017-09-13T15:40:01.325Z,52.55
2017-09-13T15:42:36.853Z,53.36
2017-09-13T15:45:11.547Z,53.25
2017-09-13T15:47:46.237Z,52.91
2017-09-13T15:50:20.969Z,52.82
2017-09-13T15:52:55.675Z,51.82
2017-09-13T15:55:30.392Z,52.31
2017-09-13T15:58:05.098Z,53.08
2017-09-13T16:00:39.453Z,53.04
2017-09-13T16:03:14.408Z,52.83
2017-09-13T16:05:48.898Z,53.00
2017-09-13T16:08:23.809Z,53.20
2017-09-13T16:10:58.904Z,52.75
2017-09-13T16:13:33.400Z,52.05
2017-09-13T16:16:08.096Z,52.17
2017-09-13T16:18:43.017Z,51.94
2017-09-13T16:21:17.721Z,53.19
2017-09-13T16:23:52.413Z,52.63
2017-09-13T16:26:27.376Z,52.95
2017-09-13T16:29:02.068Z,53.59
2017-09-13T16:31:36.664Z,53.34
2017-09-13T16:34:11.424Z,52.79
2017-09-13T16:36:46.119Z,53.11
2017-09-13T16:39:20.432Z,52.99
2017-09-13T16:41:55.506Z,52.58
2017-09-13T16:44:30.205Z,53.02
2017-09-13T16:47:05.237Z,53.83
2017-09-13T16:49:39.772Z,54.00
2017-09-13T16:52:14.507Z,54.58
2017-09-13T16:54:49.607Z,55.25
2017-09-13T16:57:24.430Z,54.49
2017-09-13T16:59:59.368Z,54.34
2017-09-13T17:02:34.376Z,54.29
2017-09-13T17:05:09.066Z,54.29
2017-09-13T17:07:44.107Z,53.65
2017-09-13T17:10:18.824Z,54.06
2017-09-13T17:12:53.521Z,54.19
2017-09-13T17:15:28.332Z,54.50
2017-09-13T17:18:03.025Z,55.48
2017-09-13T17:20:37.653Z,56.13
2017-09-13T17:23:12.618Z,56.08
2017-09-13T17:25:48.366Z,56.17
2017-09-13T17:28:24.523Z,57.24
2017-09-13T17:30:59.366Z,57.33
2017-09-13T17:33:35.271Z,57.57
2017-09-13T17:36:09.713Z,57.78
2017-09-13T17:38:44.608Z,58.33
2017-09-13T17:41:19.404Z,58.77
2017-09-13T17:43:54.313Z,59.06
2017-09-13T17:46:28.673Z,59.22
2017-09-13T17:49:03.115Z,59.67
2017-09-13T17:51:38.348Z,59.65
2017-09-13T17:54:13.348Z,60.23
2017-09-13T17:56:47.952Z,60.58
2017-09-13T17:59:22.454Z,60.35
2017-09-13T18:01:57.190Z,60.66
2017-09-13T18:04:31.948Z,60.26
2017-09-13T18:07:06.546Z,60.46
2017-09-13T18:09:41.345Z,60.40
2017-09-13T18:12:16.173Z,60.63
2017-09-13T18:14:50.805Z,61.13
2017-09-13T18:17:25.812Z,60.73
2017-09-13T18:20:00.428Z,60.84
2017-09-13T18:22:35.372Z,60.92
2017-09-13T18:25:10.104Z,61.13
2017-09-13T18:27:44.822Z,60.76
2017-09-13T18:30:19.647Z,61.09
2017-09-13T18:32:53.965Z,61.10
2017-09-13T18:35:28.468Z,61.22
2017-09-13T18:38:03.173Z,61.43
2017-09-13T18:40:37.784Z,61.61
2017-09-13T18:43:12.564Z,61.24
2017-09-13T18:45:47.365Z,61.36
2017-09-13T18:48:21.820Z,61.21
2017-09-13T18:50:56.720Z,61.51
2017-09-13T18:53:31.435Z,61.48
2017-09-13T18:56:06.463Z,61.59
2017-09-13T18:58:41.717Z,61.75
2017-09-13T19:01:16.508Z,61.83
2017-09-13T19:03:51.202Z,62.21
2017-09-13T19:06:25.893Z,62.33
2017-09-13T19:09:00.646Z,62.55
2017-09-13T19:11:35.457Z,62.54
2017-09-13T19:14:10.407Z,62.96
2017-09-13T19:16:44.809Z,63.15
2017-09-13T19:19:19.421Z,63.46
2017-09-13T19:21:55.132Z,63.67
2017-09-13T19:24:29.627Z,64.18
2017-09-13T19:27:04.824Z,64.37
2017-09-13T19:29:40.206Z,64.57
2017-09-13T19:32:14.735Z,64.93
2017-09-13T19:34:49.665Z,64.92
2017-09-13T19:37:24.260Z,65.57
2017-09-13T19:39:58.876Z,65.75
2017-09-13T19:42:34.327Z,65.99
2017-09-13T19:45:09.428Z,66.28
2017-09-13T19:47:44.144Z,66.19
2017-09-13T19:50:18.857Z,66.00
2017-09-13T19:52:53.684Z,66.36
2017-09-13T19:55:28.398Z,66.69
2017-09-13T19:58:03.989Z,67.03
2017-09-13T20:00:38.919Z,67.13
2017-09-13T20:03:13.170Z,66.97
2017-09-13T20:05:49.831Z,67.21
2017-09-13T20:08:24.804Z,67.74
2017-09-13T20:10:59.408Z,67.78
2017-09-13T20:13:34.137Z,67.78
2017-09-13T20:16:08.737Z,68.13
2017-09-13T20:18:43.456Z,68.11
2017-09-13T20:21:18.469Z,68.11
2017-09-13T20:23:53.173Z,68.31
2017-09-13T20:26:27.992Z,68.65
2017-09-13T20:29:02.700Z,68.79
2017-09-13T20:31:37.408Z,69.09
2017-09-13T20:34:12.109Z,68.89
2017-09-13T20:36:47.033Z,69.51
2017-09-13T20:39:21.668Z,69.20
2017-09-13T20:41:56.497Z,69.59
2017-09-13T20:44:31.409Z,69.99
2017-09-13T20:47:06.332Z,70.41
2017-09-13T20:49:41.008Z,70.88
2017-09-13T20:52:15.824Z,71.26
2017-09-13T20:54:50.832Z,71.50
2017-09-13T20:57:26.160Z,71.62
2017-09-13T21:00:01.366Z,71.94
2017-09-13T21:02:36.496Z,72.22
2017-09-13T21:05:11.743Z,73.09
2017-09-13T21:07:46.955Z,73.37
2017-09-13T21:10:21.858Z,73.38
2017-09-13T21:12:56.499Z,73.88
2017-09-13T21:15:31.504Z,73.96
2017-09-13T21:18:06.196Z,74.33
2017-09-13T21:20:40.939Z,74.36
2017-09-13T21:23:16.070Z,74.89
2017-09-13T21:25:51.477Z,75.59
2017-09-13T21:28:26.109Z,75.97
2017-09-13T21:31:00.824Z,76.36
2017-09-13T21:33:35.539Z,76.66
2017-09-13T21:36:10.292Z,76.77
2017-09-13T21:38:45.077Z,77.14
2017-09-13T21:41:19.945Z,77.15
2017-09-13T21:43:54.741Z,77.69
2017-09-13T21:46:29.377Z,78.20
2017-09-13T21:49:04.294Z,78.33
2017-09-13T21:51:39.357Z,78.70
2017-09-13T21:54:14.044Z,79.11
2017-09-13T21:56:48.575Z,79.41
2017-09-13T21:59:23.480Z,79.86
2017-09-13T22:01:58.005Z,80.27
2017-09-13T22:04:32.614Z,80.45
2017-09-13T22:07:07.534Z,80.70
2017-09-13T22:09:42.364Z,80.64
2017-09-13T22:12:16.532Z,80.56
2017-09-13T22:14:51.717Z,80.58
2017-09-13T22:17:26.702Z,80.48
2017-09-13T22:20:01.997Z,80.44
2017-09-13T22:22:37.023Z,80.78
2017-09-13T22:25:11.836Z,80.47
2017-09-13T22:27:46.629Z,80.31
2017-09-13T22:30:21.367Z,80.63
2017-09-13T22:32:56.409Z,80.47
2017-09-13T22:35:31.120Z,80.50
2017-09-13T22:38:05.944Z,80.37
2017-09-13T22:40:40.917Z,80.41
2017-09-13T22:43:17.089Z,80.48
2017-09-13T22:45:51.704Z,80.42
2017-09-13T22:48:26.232Z,80.50
2017-09-13T22:51:01.312Z,80.43
2017-09-13T22:53:35.952Z,80.20
2017-09-13T22:56:10.392Z,80.31
2017-09-13T22:58:45.445Z,80.49
2017-09-13T23:01:20.129Z,80.27
2017-09-13T23:03:54.874Z,80.24
2017-09-13T23:06:29.660Z,80.05
2017-09-13T23:09:04.052Z,80.14
2017-09-13T23:11:39.236Z,79.72
2017-09-13T23:14:14.037Z,79.96
2017-09-13T23:16:48.720Z,80.04
2017-09-13T23:19:23.445Z,79.84
2017-09-13T23:21:58.248Z,80.25
2017-09-13T23:24:33.352Z,80.14
2017-09-13T23:27:08.264Z,80.65
2017-09-13T23:29:42.856Z,81.05
2017-09-13T23:32:17.571Z,81.43
2017-09-13T23:34:52.560Z,81.97
2017-09-13T23:37:27.356Z,82.29
2017-09-13T23:40:02.044Z,82.56
2017-09-13T23:42:36.728Z,82.64
2017-09-13T23:45:11.332Z,82.97
2017-09-13T23:47:45.945Z,83.09
2017-09-13T23:50:20.724Z,83.03
2017-09-13T23:52:55.456Z,83.04
2017-09-13T23:55:30.180Z,83.22
2017-09-13T23:58:04.884Z,83.29
